sensor_id;sensor_type;location;lat;lon;timestamp;P1;durP1;ratioP1;P2;durP2;ratioP2
6549;SDS011;15142;48.888;9.134;2022-11-10T00:00:19;4.00;;;2.60;;
6549;SDS011;15142;48.888;9.134;2022-11-10T00:03:06;7.00;;;2.93;;
6549;SDS011;15142;48.888;9.134;2022-11-10T00:05:52;11.00;;;3.67;;
6549;SDS011;15142;48.888;9.134;2022-11-10T00:08:39;7.10;;;3.83;;
6549;SDS011;15142;48.888;9.134;2022-11-10T00:11:26;4.50;;;2.87;;
6549;SDS011;15142;48.888;9.134;2022-11-10T00:14:11;7.13;;;2.90;;
6549;SDS011;15142;48.888;9.134;2022-11-10T00:17:14;19.63;;;3.33;;
6549;SDS011;15142;48.888;9.134;2022-11-10T00:20:00;4.53;;;2.80;;
6549;SDS011;15142;48.888;9.134;2022-11-10T00:22:45;8.57;;;3.47;;
6549;SDS011;15142;48.888;9.134;2022-11-10T00:25:30;12.90;;;3.70;;
6549;SDS011;15142;48.888;9.134;2022-11-10T00:28:17;8.90;;;3.03;;
6549;SDS011;15142;48.888;9.134;2022-11-10T00:31:03;4.73;;;2.83;;
6549;SDS011;15142;48.888;9.134;2022-11-10T00:33:49;7.87;;;2.70;;
6549;SDS011;15142;48.888;9.134;2022-11-10T00:36:34;12.03;;;2.93;;
6549;SDS011;15142;48.888;9.134;2022-11-10T00:39:20;23.00;;;3.60;;
6549;SDS011;15142;48.888;9.134;2022-11-10T00:42:04;3.07;;;2.47;;
6549;SDS011;15142;48.888;9.134;2022-11-10T00:44:52;5.10;;;2.83;;
6549;SDS011;15142;48.888;9.134;2022-11-10T00:47:37;4.03;;;3.60;;
6549;SDS011;15142;48.888;9.134;2022-11-10T00:50:22;6.50;;;3.97;;
6549;SDS011;15142;48.888;9.134;2022-11-10T00:53:08;9.13;;;3.80;;
6549;SDS011;15142;48.888;9.134;2022-11-10T00:55:53;7.93;;;3.53;;
6549;SDS011;15142;48.888;9.134;2022-11-10T00:58:38;15.27;;;3.33;;
6549;SDS011;15142;48.888;9.134;2022-11-10T01:01:24;13.97;;;3.40;;
6549;SDS011;15142;48.888;9.134;2022-11-10T01:04:10;3.20;;;2.50;;
6549;SDS011;15142;48.888;9.134;2022-11-10T01:06:55;7.03;;;3.03;;
6549;SDS011;15142;48.888;9.134;2022-11-10T01:09:40;6.30;;;2.83;;
6549;SDS011;15142;48.888;9.134;2022-11-10T01:12:27;4.30;;;3.50;;
6549;SDS011;15142;48.888;9.134;2022-11-10T01:15:13;6.40;;;2.90;;
6549;SDS011;15142;48.888;9.134;2022-11-10T01:17:59;4.40;;;3.20;;
6549;SDS011;15142;48.888;9.134;2022-11-10T01:20:48;15.73;;;8.90;;
6549;SDS011;15142;48.888;9.134;2022-11-10T01:23:33;40.50;;;13.70;;
6549;SDS011;15142;48.888;9.134;2022-11-10T01:26:19;35.93;;;15.60;;
6549;SDS011;15142;48.888;9.134;2022-11-10T01:29:05;38.90;;;15.77;;
6549;SDS011;15142;48.888;9.134;2022-11-10T01:31:50;56.33;;;17.60;;
6549;SDS011;15142;48.888;9.134;2022-11-10T01:34:36;32.73;;;14.57;;
6549;SDS011;15142;48.888;9.134;2022-11-10T01:37:21;22.63;;;7.40;;
6549;SDS011;15142;48.888;9.134;2022-11-10T01:40:07;11.83;;;6.00;;
6549;SDS011;15142;48.888;9.134;2022-11-10T01:42:54;11.10;;;3.13;;
6549;SDS011;15142;48.888;9.134;2022-11-10T01:45:45;8.60;;;3.43;;
6549;SDS011;15142;48.888;9.134;2022-11-10T01:48:34;15.60;;;3.30;;
6549;SDS011;15142;48.888;9.134;2022-11-10T01:51:24;20.30;;;3.60;;
6549;SDS011;15142;48.888;9.134;2022-11-10T01:54:14;6.03;;;3.00;;
6549;SDS011;15142;48.888;9.134;2022-11-10T01:57:03;7.47;;;3.40;;
6549;SDS011;15142;48.888;9.134;2022-11-10T01:59:51;13.37;;;3.40;;
6549;SDS011;15142;48.888;9.134;2022-11-10T02:02:37;14.53;;;3.90;;
6549;SDS011;15142;48.888;9.134;2022-11-10T02:05:26;10.83;;;3.70;;
6549;SDS011;15142;48.888;9.134;2022-11-10T02:08:13;6.20;;;3.17;;
6549;SDS011;15142;48.888;9.134;2022-11-10T02:11:00;9.63;;;2.93;;
6549;SDS011;15142;48.888;9.134;2022-11-10T02:13:44;11.73;;;3.60;;
6549;SDS011;15142;48.888;9.134;2022-11-10T02:16:30;5.57;;;3.37;;
6549;SDS011;15142;48.888;9.134;2022-11-10T02:19:16;10.70;;;3.90;;
6549;SDS011;15142;48.888;9.134;2022-11-10T02:22:04;6.83;;;2.93;;
6549;SDS011;15142;48.888;9.134;2022-11-10T02:24:49;11.97;;;3.33;;
6549;SDS011;15142;48.888;9.134;2022-11-10T02:27:34;5.43;;;3.07;;
6549;SDS011;15142;48.888;9.134;2022-11-10T02:30:19;14.50;;;4.13;;
6549;SDS011;15142;48.888;9.134;2022-11-10T02:33:05;10.00;;;4.13;;
6549;SDS011;15142;48.888;9.134;2022-11-10T02:35:50;10.30;;;3.80;;
6549;SDS011;15142;48.888;9.134;2022-11-10T02:38:37;10.03;;;3.60;;
6549;SDS011;15142;48.888;9.134;2022-11-10T02:41:23;6.20;;;3.20;;
6549;SDS011;15142;48.888;9.134;2022-11-10T02:44:08;9.23;;;3.60;;
6549;SDS011;15142;48.888;9.134;2022-11-10T02:46:53;12.23;;;4.47;;
6549;SDS011;15142;48.888;9.134;2022-11-10T02:49:38;11.73;;;4.17;;
6549;SDS011;15142;48.888;9.134;2022-11-10T02:52:23;14.80;;;3.93;;
6549;SDS011;15142;48.888;9.134;2022-11-10T02:57:56;15.33;;;4.33;;
6549;SDS011;15142;48.888;9.134;2022-11-10T03:00:42;9.93;;;4.10;;
6549;SDS011;15142;48.888;9.134;2022-11-10T03:03:27;10.27;;;3.80;;
6549;SDS011;15142;48.888;9.134;2022-11-10T03:06:12;18.67;;;4.03;;
6549;SDS011;15142;48.888;9.134;2022-11-10T03:08:57;16.80;;;4.60;;
6549;SDS011;15142;48.888;9.134;2022-11-10T03:11:43;9.53;;;4.37;;
6549;SDS011;15142;48.888;9.134;2022-11-10T03:14:29;11.97;;;4.60;;
6549;SDS011;15142;48.888;9.134;2022-11-10T03:17:14;4.73;;;3.90;;
6549;SDS011;15142;48.888;9.134;2022-11-10T03:19:59;19.50;;;4.03;;
6549;SDS011;15142;48.888;9.134;2022-11-10T03:22:44;13.50;;;4.10;;
6549;SDS011;15142;48.888;9.134;2022-11-10T03:25:30;10.23;;;4.33;;
6549;SDS011;15142;48.888;9.134;2022-11-10T03:28:16;7.93;;;4.03;;
6549;SDS011;15142;48.888;9.134;2022-11-10T03:31:02;6.70;;;3.80;;
6549;SDS011;15142;48.888;9.134;2022-11-10T03:33:47;4.43;;;3.83;;
6549;SDS011;15142;48.888;9.134;2022-11-10T03:36:32;8.40;;;4.17;;
6549;SDS011;15142;48.888;9.134;2022-11-10T03:39:17;8.70;;;4.00;;
6549;SDS011;15142;48.888;9.134;2022-11-10T03:42:03;11.87;;;6.77;;
6549;SDS011;15142;48.888;9.134;2022-11-10T03:44:48;11.50;;;3.80;;
6549;SDS011;15142;48.888;9.134;2022-11-10T03:47:34;6.20;;;4.63;;
6549;SDS011;15142;48.888;9.134;2022-11-10T03:50:19;10.70;;;4.40;;
6549;SDS011;15142;48.888;9.134;2022-11-10T03:53:04;16.27;;;4.07;;
6549;SDS011;15142;48.888;9.134;2022-11-10T03:55:49;11.60;;;4.20;;
6549;SDS011;15142;48.888;9.134;2022-11-10T03:58:34;12.07;;;4.07;;
6549;SDS011;15142;48.888;9.134;2022-11-10T04:01:19;5.40;;;4.00;;
6549;SDS011;15142;48.888;9.134;2022-11-10T04:04:08;6.43;;;3.30;;
6549;SDS011;15142;48.888;9.134;2022-11-10T04:07:14;5.00;;;3.43;;
6549;SDS011;15142;48.888;9.134;2022-11-10T04:10:17;6.83;;;3.70;;
6549;SDS011;15142;48.888;9.134;2022-11-10T04:13:02;9.30;;;4.80;;
6549;SDS011;15142;48.888;9.134;2022-11-10T04:16:05;6.83;;;3.67;;
6549;SDS011;15142;48.888;9.134;2022-11-10T04:18:50;29.33;;;7.40;;
6549;SDS011;15142;48.888;9.134;2022-11-10T04:21:37;8.73;;;4.40;;
6549;SDS011;15142;48.888;9.134;2022-11-10T04:24:22;12.77;;;5.00;;
6549;SDS011;15142;48.888;9.134;2022-11-10T04:27:07;5.27;;;4.20;;
6549;SDS011;15142;48.888;9.134;2022-11-10T04:29:52;12.43;;;4.63;;
6549;SDS011;15142;48.888;9.134;2022-11-10T04:32:37;6.87;;;4.57;;
6549;SDS011;15142;48.888;9.134;2022-11-10T04:35:22;8.83;;;4.63;;
6549;SDS011;15142;48.888;9.134;2022-11-10T04:38:09;14.33;;;4.70;;
6549;SDS011;15142;48.888;9.134;2022-11-10T04:40:54;39.23;;;8.43;;
6549;SDS011;15142;48.888;9.134;2022-11-10T04:43:39;17.80;;;7.03;;
6549;SDS011;15142;48.888;9.134;2022-11-10T04:46:25;8.10;;;5.00;;
6549;SDS011;15142;48.888;9.134;2022-11-10T04:49:12;14.70;;;4.70;;
6549;SDS011;15142;48.888;9.134;2022-11-10T04:51:57;7.67;;;3.83;;
6549;SDS011;15142;48.888;9.134;2022-11-10T04:54:43;4.83;;;4.33;;
6549;SDS011;15142;48.888;9.134;2022-11-10T04:57:28;4.40;;;3.93;;
6549;SDS011;15142;48.888;9.134;2022-11-10T05:00:14;6.47;;;4.20;;
6549;SDS011;15142;48.888;9.134;2022-11-10T05:03:00;7.70;;;5.10;;
6549;SDS011;15142;48.888;9.134;2022-11-10T05:05:47;12.67;;;4.07;;
6549;SDS011;15142;48.888;9.134;2022-11-10T05:08:33;7.67;;;4.90;;
6549;SDS011;15142;48.888;9.134;2022-11-10T05:11:19;18.30;;;5.87;;
6549;SDS011;15142;48.888;9.134;2022-11-10T05:14:04;11.87;;;6.87;;
6549;SDS011;15142;48.888;9.134;2022-11-10T05:16:49;8.70;;;4.53;;
6549;SDS011;15142;48.888;9.134;2022-11-10T05:19:34;6.43;;;3.93;;
6549;SDS011;15142;48.888;9.134;2022-11-10T05:22:19;10.83;;;6.07;;
6549;SDS011;15142;48.888;9.134;2022-11-10T05:25:05;7.47;;;4.70;;
6549;SDS011;15142;48.888;9.134;2022-11-10T05:27:52;13.43;;;4.83;;
6549;SDS011;15142;48.888;9.134;2022-11-10T05:30:37;12.03;;;4.93;;
6549;SDS011;15142;48.888;9.134;2022-11-10T05:33:23;27.87;;;4.83;;
6549;SDS011;15142;48.888;9.134;2022-11-10T05:36:08;14.07;;;4.70;;
6549;SDS011;15142;48.888;9.134;2022-11-10T05:38:54;8.20;;;5.33;;
6549;SDS011;15142;48.888;9.134;2022-11-10T05:41:39;8.27;;;5.20;;
6549;SDS011;15142;48.888;9.134;2022-11-10T05:44:25;16.17;;;5.30;;
6549;SDS011;15142;48.888;9.134;2022-11-10T05:47:10;12.33;;;4.00;;
6549;SDS011;15142;48.888;9.134;2022-11-10T05:49:55;17.00;;;5.83;;
6549;SDS011;15142;48.888;9.134;2022-11-10T05:52:41;15.80;;;6.00;;
6549;SDS011;15142;48.888;9.134;2022-11-10T05:55:29;10.83;;;5.97;;
6549;SDS011;15142;48.888;9.134;2022-11-10T05:58:14;11.03;;;5.47;;
6549;SDS011;15142;48.888;9.134;2022-11-10T06:01:00;15.87;;;6.20;;
6549;SDS011;15142;48.888;9.134;2022-11-10T06:03:45;13.73;;;4.57;;
6549;SDS011;15142;48.888;9.134;2022-11-10T06:06:30;11.67;;;4.83;;
6549;SDS011;15142;48.888;9.134;2022-11-10T06:09:15;9.07;;;5.20;;
6549;SDS011;15142;48.888;9.134;2022-11-10T06:12:00;13.37;;;5.70;;
6549;SDS011;15142;48.888;9.134;2022-11-10T06:14:46;15.03;;;6.30;;
6549;SDS011;15142;48.888;9.134;2022-11-10T06:17:32;12.73;;;5.17;;
6549;SDS011;15142;48.888;9.134;2022-11-10T06:20:20;5.70;;;5.17;;
6549;SDS011;15142;48.888;9.134;2022-11-10T06:23:08;6.93;;;4.30;;
6549;SDS011;15142;48.888;9.134;2022-11-10T06:25:55;14.57;;;4.90;;
6549;SDS011;15142;48.888;9.134;2022-11-10T06:28:40;13.40;;;4.80;;
6549;SDS011;15142;48.888;9.134;2022-11-10T06:31:25;6.50;;;5.00;;
6549;SDS011;15142;48.888;9.134;2022-11-10T06:34:12;9.13;;;4.70;;
6549;SDS011;15142;48.888;9.134;2022-11-10T06:36:57;12.10;;;3.77;;
6549;SDS011;15142;48.888;9.134;2022-11-10T06:39:42;9.07;;;5.07;;
6549;SDS011;15142;48.888;9.134;2022-11-10T06:42:27;13.33;;;5.57;;
6549;SDS011;15142;48.888;9.134;2022-11-10T06:45:12;5.67;;;5.03;;
6549;SDS011;15142;48.888;9.134;2022-11-10T06:47:57;7.17;;;5.03;;
6549;SDS011;15142;48.888;9.134;2022-11-10T06:50:44;10.17;;;6.53;;
6549;SDS011;15142;48.888;9.134;2022-11-10T06:53:29;14.77;;;6.60;;
6549;SDS011;15142;48.888;9.134;2022-11-10T06:56:14;25.00;;;9.07;;
6549;SDS011;15142;48.888;9.134;2022-11-10T06:58:59;10.43;;;6.17;;
6549;SDS011;15142;48.888;9.134;2022-11-10T07:01:45;11.70;;;4.83;;
6549;SDS011;15142;48.888;9.134;2022-11-10T07:04:31;4.97;;;4.47;;
6549;SDS011;15142;48.888;9.134;2022-11-10T07:07:18;11.80;;;5.13;;
6549;SDS011;15142;48.888;9.134;2022-11-10T07:10:03;9.60;;;3.93;;
6549;SDS011;15142;48.888;9.134;2022-11-10T07:12:54;4.47;;;4.07;;
6549;SDS011;15142;48.888;9.134;2022-11-10T07:15:40;9.50;;;3.43;;
6549;SDS011;15142;48.888;9.134;2022-11-10T07:18:25;10.47;;;4.63;;
6549;SDS011;15142;48.888;9.134;2022-11-10T07:21:10;9.70;;;3.07;;
6549;SDS011;15142;48.888;9.134;2022-11-10T07:23:56;9.10;;;3.50;;
6549;SDS011;15142;48.888;9.134;2022-11-10T07:26:41;5.50;;;3.27;;
6549;SDS011;15142;48.888;9.134;2022-11-10T07:29:27;4.53;;;2.73;;
6549;SDS011;15142;48.888;9.134;2022-11-10T07:32:11;9.83;;;3.70;;
6549;SDS011;15142;48.888;9.134;2022-11-10T07:34:57;7.87;;;3.17;;
6549;SDS011;15142;48.888;9.134;2022-11-10T07:37:42;6.17;;;2.90;;
6549;SDS011;15142;48.888;9.134;2022-11-10T07:40:28;6.77;;;3.53;;
6549;SDS011;15142;48.888;9.134;2022-11-10T07:43:14;6.27;;;4.20;;
6549;SDS011;15142;48.888;9.134;2022-11-10T07:45:59;8.70;;;3.23;;
6549;SDS011;15142;48.888;9.134;2022-11-10T07:48:44;5.33;;;3.10;;
6549;SDS011;15142;48.888;9.134;2022-11-10T07:51:30;7.20;;;3.80;;
6549;SDS011;15142;48.888;9.134;2022-11-10T07:54:15;4.43;;;3.13;;
6549;SDS011;15142;48.888;9.134;2022-11-10T07:57:01;4.83;;;3.40;;
6549;SDS011;15142;48.888;9.134;2022-11-10T07:59:46;6.30;;;2.87;;
6549;SDS011;15142;48.888;9.134;2022-11-10T08:02:31;8.50;;;3.10;;
6549;SDS011;15142;48.888;9.134;2022-11-10T08:05:16;8.63;;;2.90;;
6549;SDS011;15142;48.888;9.134;2022-11-10T08:08:02;7.90;;;3.50;;
6549;SDS011;15142;48.888;9.134;2022-11-10T08:10:48;5.10;;;3.00;;
6549;SDS011;15142;48.888;9.134;2022-11-10T08:13:34;10.07;;;3.70;;
6549;SDS011;15142;48.888;9.134;2022-11-10T08:16:20;5.97;;;3.33;;
6549;SDS011;15142;48.888;9.134;2022-11-10T08:19:05;8.70;;;3.33;;
6549;SDS011;15142;48.888;9.134;2022-11-10T08:21:50;18.00;;;3.43;;
6549;SDS011;15142;48.888;9.134;2022-11-10T08:24:35;9.73;;;3.43;;
6549;SDS011;15142;48.888;9.134;2022-11-10T08:27:20;6.20;;;3.70;;
6549;SDS011;15142;48.888;9.134;2022-11-10T08:30:07;7.67;;;3.70;;
6549;SDS011;15142;48.888;9.134;2022-11-10T08:32:53;3.37;;;3.07;;
6549;SDS011;15142;48.888;9.134;2022-11-10T08:35:40;7.27;;;2.63;;
6549;SDS011;15142;48.888;9.134;2022-11-10T08:38:26;12.87;;;2.70;;
6549;SDS011;15142;48.888;9.134;2022-11-10T08:41:11;4.73;;;2.90;;
6549;SDS011;15142;48.888;9.134;2022-11-10T08:43:56;7.03;;;3.50;;
6549;SDS011;15142;48.888;9.134;2022-11-10T08:46:43;20.80;;;3.47;;
6549;SDS011;15142;48.888;9.134;2022-11-10T08:49:29;3.70;;;2.93;;
6549;SDS011;15142;48.888;9.134;2022-11-10T08:52:14;8.17;;;2.40;;
6549;SDS011;15142;48.888;9.134;2022-11-10T08:54:59;12.67;;;3.10;;
6549;SDS011;15142;48.888;9.134;2022-11-10T08:57:34;6.50;;;3.53;;
6549;SDS011;15142;48.888;9.134;2022-11-10T09:00:19;5.30;;;2.10;;
6549;SDS011;15142;48.888;9.134;2022-11-10T09:03:06;12.10;;;2.60;;
6549;SDS011;15142;48.888;9.134;2022-11-10T09:05:53;4.90;;;2.37;;
6549;SDS011;15142;48.888;9.134;2022-11-10T09:08:41;4.43;;;2.73;;
6549;SDS011;15142;48.888;9.134;2022-11-10T09:11:26;4.27;;;1.63;;
6549;SDS011;15142;48.888;9.134;2022-11-10T09:14:11;2.90;;;1.43;;
6549;SDS011;15142;48.888;9.134;2022-11-10T09:16:56;4.17;;;2.70;;
6549;SDS011;15142;48.888;9.134;2022-11-10T09:19:43;5.73;;;2.20;;
6549;SDS011;15142;48.888;9.134;2022-11-10T09:22:27;5.83;;;1.70;;
6549;SDS011;15142;48.888;9.134;2022-11-10T09:25:13;4.50;;;1.80;;
6549;SDS011;15142;48.888;9.134;2022-11-10T09:27:58;5.27;;;2.80;;
6549;SDS011;15142;48.888;9.134;2022-11-10T09:30:44;3.90;;;1.80;;
6549;SDS011;15142;48.888;9.134;2022-11-10T09:33:29;2.33;;;2.10;;
6549;SDS011;15142;48.888;9.134;2022-11-10T09:36:16;3.37;;;2.10;;
6549;SDS011;15142;48.888;9.134;2022-11-10T09:39:01;3.80;;;3.03;;
6549;SDS011;15142;48.888;9.134;2022-11-10T09:41:46;5.50;;;2.77;;
6549;SDS011;15142;48.888;9.134;2022-11-10T09:44:32;10.33;;;2.23;;
6549;SDS011;15142;48.888;9.134;2022-11-10T09:47:22;3.15;;;1.90;;
6549;SDS011;15142;48.888;9.134;2022-11-10T09:50:13;6.93;;;2.10;;
6549;SDS011;15142;48.888;9.134;2022-11-10T09:53:03;5.43;;;1.73;;
6549;SDS011;15142;48.888;9.134;2022-11-10T09:55:54;7.70;;;3.47;;
6549;SDS011;15142;48.888;9.134;2022-11-10T09:58:42;6.70;;;1.97;;
6549;SDS011;15142;48.888;9.134;2022-11-10T10:01:32;3.23;;;2.00;;
6549;SDS011;15142;48.888;9.134;2022-11-10T10:04:28;8.10;;;1.80;;
6549;SDS011;15142;48.888;9.134;2022-11-10T10:07:24;4.87;;;1.87;;
6549;SDS011;15142;48.888;9.134;2022-11-10T10:10:16;12.00;;;2.43;;
6549;SDS011;15142;48.888;9.134;2022-11-10T10:13:10;4.70;;;1.73;;
6549;SDS011;15142;48.888;9.134;2022-11-10T10:16:09;3.37;;;1.90;;
6549;SDS011;15142;48.888;9.134;2022-11-10T10:19:01;12.07;;;1.70;;
6549;SDS011;15142;48.888;9.134;2022-11-10T10:22:12;3.23;;;1.20;;
6549;SDS011;15142;48.888;9.134;2022-11-10T10:25:13;12.53;;;1.10;;
6549;SDS011;15142;48.888;9.134;2022-11-10T10:28:05;5.90;;;1.27;;
6549;SDS011;15142;48.888;9.134;2022-11-10T10:31:00;4.67;;;1.47;;
6549;SDS011;15142;48.888;9.134;2022-11-10T10:33:57;2.17;;;1.60;;
6549;SDS011;15142;48.888;9.134;2022-11-10T10:36:42;4.77;;;1.50;;
6549;SDS011;15142;48.888;9.134;2022-11-10T10:39:28;8.37;;;1.70;;
6549;SDS011;15142;48.888;9.134;2022-11-10T10:42:23;5.83;;;1.60;;
6549;SDS011;15142;48.888;9.134;2022-11-10T10:45:20;3.70;;;1.60;;
6549;SDS011;15142;48.888;9.134;2022-11-10T10:48:21;11.93;;;1.27;;
6549;SDS011;15142;48.888;9.134;2022-11-10T10:51:08;5.57;;;1.23;;
6549;SDS011;15142;48.888;9.134;2022-11-10T10:53:53;9.53;;;2.13;;
6549;SDS011;15142;48.888;9.134;2022-11-10T10:56:38;27.33;;;3.00;;
6549;SDS011;15142;48.888;9.134;2022-11-10T10:59:25;23.27;;;2.80;;
6549;SDS011;15142;48.888;9.134;2022-11-10T11:02:19;5.30;;;1.70;;
6549;SDS011;15142;48.888;9.134;2022-11-10T11:05:09;3.13;;;1.47;;
6549;SDS011;15142;48.888;9.134;2022-11-10T11:07:58;13.83;;;4.40;;
6549;SDS011;15142;48.888;9.134;2022-11-10T11:10:45;5.83;;;2.50;;
6549;SDS011;15142;48.888;9.134;2022-11-10T11:13:30;5.37;;;1.40;;
6549;SDS011;15142;48.888;9.134;2022-11-10T11:16:17;3.83;;;1.30;;
6549;SDS011;15142;48.888;9.134;2022-11-10T11:19:02;3.60;;;1.50;;
6549;SDS011;15142;48.888;9.134;2022-11-10T11:21:50;3.03;;;1.60;;
6549;SDS011;15142;48.888;9.134;2022-11-10T11:25:01;4.70;;;1.30;;
6549;SDS011;15142;48.888;9.134;2022-11-10T11:27:58;3.70;;;1.00;;
6549;SDS011;15142;48.888;9.134;2022-11-10T11:31:01;2.97;;;1.30;;
6549;SDS011;15142;48.888;9.134;2022-11-10T11:33:58;3.50;;;1.00;;
6549;SDS011;15142;48.888;9.134;2022-11-10T11:36:47;3.40;;;1.50;;
6549;SDS011;15142;48.888;9.134;2022-11-10T11:39:43;4.23;;;1.13;;
6549;SDS011;15142;48.888;9.134;2022-11-10T11:42:42;2.93;;;1.33;;
6549;SDS011;15142;48.888;9.134;2022-11-10T11:45:39;3.90;;;1.70;;
6549;SDS011;15142;48.888;9.134;2022-11-10T11:48:35;6.80;;;1.40;;
6549;SDS011;15142;48.888;9.134;2022-11-10T11:51:33;3.40;;;1.17;;
6549;SDS011;15142;48.888;9.134;2022-11-10T11:54:25;2.00;;;1.70;;
6549;SDS011;15142;48.888;9.134;2022-11-10T11:57:15;2.77;;;1.33;;
6549;SDS011;15142;48.888;9.134;2022-11-10T12:00:07;1.07;;;1.07;;
6549;SDS011;15142;48.888;9.134;2022-11-10T12:02:58;2.97;;;1.40;;
6549;SDS011;15142;48.888;9.134;2022-11-10T12:06:09;4.73;;;1.30;;
6549;SDS011;15142;48.888;9.134;2022-11-10T12:09:06;5.20;;;1.00;;
6549;SDS011;15142;48.888;9.134;2022-11-10T12:12:02;4.10;;;1.70;;
6549;SDS011;15142;48.888;9.134;2022-11-10T12:15:00;3.30;;;1.43;;
6549;SDS011;15142;48.888;9.134;2022-11-10T12:17:55;4.67;;;1.20;;
6549;SDS011;15142;48.888;9.134;2022-11-10T12:20:53;5.73;;;1.20;;
6549;SDS011;15142;48.888;9.134;2022-11-10T12:23:48;4.60;;;2.20;;
6549;SDS011;15142;48.888;9.134;2022-11-10T12:26:47;3.33;;;0.93;;
6549;SDS011;15142;48.888;9.134;2022-11-10T12:29:38;11.80;;;1.43;;
6549;SDS011;15142;48.888;9.134;2022-11-10T12:32:27;5.07;;;1.30;;
6549;SDS011;15142;48.888;9.134;2022-11-10T12:35:18;4.60;;;1.10;;
6549;SDS011;15142;48.888;9.134;2022-11-10T12:38:06;4.33;;;0.90;;
6549;SDS011;15142;48.888;9.134;2022-11-10T12:41:00;6.13;;;1.40;;
6549;SDS011;15142;48.888;9.134;2022-11-10T12:43:55;8.90;;;1.27;;
6549;SDS011;15142;48.888;9.134;2022-11-10T12:46:47;2.93;;;1.33;;
6549;SDS011;15142;48.888;9.134;2022-11-10T12:49:38;10.00;;;1.30;;
6549;SDS011;15142;48.888;9.134;2022-11-10T12:52:31;1.70;;;1.10;;
6549;SDS011;15142;48.888;9.134;2022-11-10T12:55:19;2.83;;;1.10;;
6549;SDS011;15142;48.888;9.134;2022-11-10T12:58:09;5.13;;;1.10;;
6549;SDS011;15142;48.888;9.134;2022-11-10T13:01:00;3.57;;;1.03;;
6549;SDS011;15142;48.888;9.134;2022-11-10T13:03:52;3.27;;;1.00;;
6549;SDS011;15142;48.888;9.134;2022-11-10T13:06:44;2.10;;;1.47;;
6549;SDS011;15142;48.888;9.134;2022-11-10T13:09:33;6.70;;;1.20;;
6549;SDS011;15142;48.888;9.134;2022-11-10T13:12:20;4.63;;;1.53;;
6549;SDS011;15142;48.888;9.134;2022-11-10T13:15:39;3.87;;;1.10;;
6549;SDS011;15142;48.888;9.134;2022-11-10T13:24:48;1.10;;;0.90;;
6549;SDS011;15142;48.888;9.134;2022-11-10T13:30:43;2.87;;;1.10;;
6549;SDS011;15142;48.888;9.134;2022-11-10T13:33:34;5.40;;;2.50;;
6549;SDS011;15142;48.888;9.134;2022-11-10T13:36:35;1.93;;;1.20;;
6549;SDS011;15142;48.888;9.134;2022-11-10T13:39:22;12.63;;;1.10;;
6549;SDS011;15142;48.888;9.134;2022-11-10T13:42:15;1.60;;;1.00;;
6549;SDS011;15142;48.888;9.134;2022-11-10T13:48:12;6.97;;;1.00;;
6549;SDS011;15142;48.888;9.134;2022-11-10T13:51:12;1.90;;;1.10;;
6549;SDS011;15142;48.888;9.134;2022-11-10T13:54:14;4.87;;;1.30;;
6549;SDS011;15142;48.888;9.134;2022-11-10T13:57:19;2.63;;;1.00;;
6549;SDS011;15142;48.888;9.134;2022-11-10T14:00:22;6.13;;;1.27;;
6549;SDS011;15142;48.888;9.134;2022-11-10T14:03:19;1.67;;;0.90;;
6549;SDS011;15142;48.888;9.134;2022-11-10T14:06:37;2.00;;;1.00;;
6549;SDS011;15142;48.888;9.134;2022-11-10T14:09:29;5.37;;;1.50;;
6549;SDS011;15142;48.888;9.134;2022-11-10T14:12:20;2.40;;;0.97;;
6549;SDS011;15142;48.888;9.134;2022-11-10T14:15:11;13.23;;;2.90;;
6549;SDS011;15142;48.888;9.134;2022-11-10T14:17:59;9.47;;;1.50;;
6549;SDS011;15142;48.888;9.134;2022-11-10T14:20:45;1.00;;;0.90;;
6549;SDS011;15142;48.888;9.134;2022-11-10T14:23:41;2.40;;;1.27;;
6549;SDS011;15142;48.888;9.134;2022-11-10T14:26:33;7.43;;;1.23;;
6549;SDS011;15142;48.888;9.134;2022-11-10T14:29:30;3.50;;;1.27;;
6549;SDS011;15142;48.888;9.134;2022-11-10T14:32:18;4.90;;;1.33;;
6549;SDS011;15142;48.888;9.134;2022-11-10T14:35:05;2.10;;;1.20;;
6549;SDS011;15142;48.888;9.134;2022-11-10T14:38:01;8.77;;;1.60;;
6549;SDS011;15142;48.888;9.134;2022-11-10T14:40:49;6.90;;;2.70;;
6549;SDS011;15142;48.888;9.134;2022-11-10T14:43:37;1.57;;;1.47;;
6549;SDS011;15142;48.888;9.134;2022-11-10T14:46:23;3.50;;;1.43;;
6549;SDS011;15142;48.888;9.134;2022-11-10T14:49:09;4.00;;;0.90;;
6549;SDS011;15142;48.888;9.134;2022-11-10T14:51:55;1.83;;;1.07;;
6549;SDS011;15142;48.888;9.134;2022-11-10T14:54:43;1.50;;;1.23;;
6549;SDS011;15142;48.888;9.134;2022-11-10T14:57:30;1.23;;;0.73;;
6549;SDS011;15142;48.888;9.134;2022-11-10T15:00:18;3.33;;;0.90;;
6549;SDS011;15142;48.888;9.134;2022-11-10T15:03:10;5.43;;;1.17;;
6549;SDS011;15142;48.888;9.134;2022-11-10T15:05:59;4.10;;;1.30;;
6549;SDS011;15142;48.888;9.134;2022-11-10T15:08:46;4.90;;;1.07;;
6549;SDS011;15142;48.888;9.134;2022-11-10T15:11:31;2.70;;;0.80;;
6549;SDS011;15142;48.888;9.134;2022-11-10T15:14:30;1.90;;;1.13;;
6549;SDS011;15142;48.888;9.134;2022-11-10T15:17:33;2.03;;;1.30;;
6549;SDS011;15142;48.888;9.134;2022-11-10T15:20:36;2.77;;;1.43;;
6549;SDS011;15142;48.888;9.134;2022-11-10T15:23:24;4.53;;;1.43;;
6549;SDS011;15142;48.888;9.134;2022-11-10T15:26:16;10.50;;;1.40;;
6549;SDS011;15142;48.888;9.134;2022-11-10T15:29:04;5.90;;;1.80;;
6549;SDS011;15142;48.888;9.134;2022-11-10T15:31:50;1.30;;;1.20;;
6549;SDS011;15142;48.888;9.134;2022-11-10T15:34:41;3.00;;;1.63;;
6549;SDS011;15142;48.888;9.134;2022-11-10T15:37:29;6.13;;;2.50;;
6549;SDS011;15142;48.888;9.134;2022-11-10T15:40:30;6.20;;;1.33;;
6549;SDS011;15142;48.888;9.134;2022-11-10T15:43:24;3.07;;;1.30;;
6549;SDS011;15142;48.888;9.134;2022-11-10T15:46:12;7.77;;;1.87;;
6549;SDS011;15142;48.888;9.134;2022-11-10T15:48:58;2.77;;;1.23;;
6549;SDS011;15142;48.888;9.134;2022-11-10T15:51:47;4.40;;;1.40;;
6549;SDS011;15142;48.888;9.134;2022-11-10T15:54:34;4.70;;;1.33;;
6549;SDS011;15142;48.888;9.134;2022-11-10T15:57:20;3.07;;;1.30;;
6549;SDS011;15142;48.888;9.134;2022-11-10T16:00:10;2.20;;;1.60;;
6549;SDS011;15142;48.888;9.134;2022-11-10T16:02:56;3.87;;;1.57;;
6549;SDS011;15142;48.888;9.134;2022-11-10T16:05:41;4.07;;;1.40;;
6549;SDS011;15142;48.888;9.134;2022-11-10T16:08:28;4.03;;;2.00;;
6549;SDS011;15142;48.888;9.134;2022-11-10T16:11:15;2.20;;;1.73;;
6549;SDS011;15142;48.888;9.134;2022-11-10T16:14:02;3.13;;;2.13;;
6549;SDS011;15142;48.888;9.134;2022-11-10T16:16:48;6.10;;;2.60;;
6549;SDS011;15142;48.888;9.134;2022-11-10T16:19:33;6.20;;;3.03;;
6549;SDS011;15142;48.888;9.134;2022-11-10T16:22:18;13.60;;;4.90;;
6549;SDS011;15142;48.888;9.134;2022-11-10T16:25:06;17.03;;;5.90;;
6549;SDS011;15142;48.888;9.134;2022-11-10T16:27:51;14.00;;;6.00;;
6549;SDS011;15142;48.888;9.134;2022-11-10T16:30:36;11.13;;;4.20;;
6549;SDS011;15142;48.888;9.134;2022-11-10T16:33:22;18.03;;;5.20;;
6549;SDS011;15142;48.888;9.134;2022-11-10T16:36:11;15.00;;;5.40;;
6549;SDS011;15142;48.888;9.134;2022-11-10T16:39:08;7.37;;;4.30;;
6549;SDS011;15142;48.888;9.134;2022-11-10T16:41:57;8.37;;;4.80;;
6549;SDS011;15142;48.888;9.134;2022-11-10T16:44:42;7.90;;;4.33;;
6549;SDS011;15142;48.888;9.134;2022-11-10T16:47:27;8.70;;;4.30;;
6549;SDS011;15142;48.888;9.134;2022-11-10T16:50:23;9.67;;;6.60;;
6549;SDS011;15142;48.888;9.134;2022-11-10T16:53:14;9.63;;;5.00;;
6549;SDS011;15142;48.888;9.134;2022-11-10T16:56:01;9.00;;;4.50;;
6549;SDS011;15142;48.888;9.134;2022-11-10T16:58:47;10.10;;;4.40;;
6549;SDS011;15142;48.888;9.134;2022-11-10T17:01:33;7.17;;;4.47;;
6549;SDS011;15142;48.888;9.134;2022-11-10T17:04:19;11.53;;;4.00;;
6549;SDS011;15142;48.888;9.134;2022-11-10T17:07:07;6.03;;;3.57;;
6549;SDS011;15142;48.888;9.134;2022-11-10T17:09:56;6.53;;;3.40;;
6549;SDS011;15142;48.888;9.134;2022-11-10T17:12:44;10.43;;;4.07;;
6549;SDS011;15142;48.888;9.134;2022-11-10T17:15:30;7.10;;;4.30;;
6549;SDS011;15142;48.888;9.134;2022-11-10T17:18:18;12.00;;;3.77;;
6549;SDS011;15142;48.888;9.134;2022-11-10T17:21:06;10.23;;;3.30;;